Aviation Digital Data Service (ADDS)

Output produced by METARs form (1947 UTC 22 May 2019)
found at http://aviationweather.gov/metar/data/
 
METAR text: ETMN 221920Z 29005KT 9999 FEW008 10/07 Q1018 BLU+
Conditions at: ETMN (NORDHOLZ (GER-NA, DE) observed 1920 UTC 22 May 2019
Temperature: 10.0°C (50°F)
Dewpoint: 7.0°C (45°F) [RH = 82%]
Pressure (altimeter): 30.06 inches Hg (1018.0 mb)
Winds: from the WNW (290 degrees) at 6 MPH (5 knots; 2.6 m/s)
Visibility: 6 or more miles (10+ km)
Ceiling: at least 12,000 feet AGL
Clouds: few clouds at 800 feet AGL
Weather: no significant weather observed at this time

METAR text: ETMN 221850Z 30007KT 9999 FEW015 11/07 Q1018 BLU+FCST CANCEL
Conditions at: ETMN (NORDHOLZ (GER-NA, DE) observed 1850 UTC 22 May 2019
Temperature: 11.0°C (52°F)
Dewpoint: 7.0°C (45°F) [RH = 76%]
Pressure (altimeter): 30.06 inches Hg (1018.0 mb)
Winds: from the WNW (300 degrees) at 8 MPH (7 knots; 3.6 m/s)
Visibility: 6 or more miles (10+ km)
Ceiling: at least 12,000 feet AGL
Clouds: few clouds at 1500 feet AGL
Weather: no significant weather observed at this time

Forecast for: AMD
Text: TAF AMD ETMN 221822Z 2217/2302 30013KT 9999 NSW BKN020
Forecast period: 1700 UTC 22 May 2019 to 0200 UTC 23 May 2019
Forecast type: FROM: standard forecast or significant change
Winds: from the WNW (300 degrees) at 15 MPH (13 knots; 6.7 m/s)
Visibility: 6 or more miles 10+ km)
Ceiling: 2000 feet AGL
Clouds: broken clouds at 2000 feet AGL
Weather: NSW  (no significant weather)
Text: BECMG 2217/2218 27006KT 9999 NSW FEW010 SCT025
Forecast period: 1700 UTC 22 May 2019 to 0200 UTC 23 May 2019
Forecast type: BECOMING: Conditions expected to become as follows by 1800 UTC 22 May 2019
Winds: from the W (270 degrees) at 7 MPH (6 knots; 3.1 m/s)
Visibility: 6 or more miles 10+ km)
Ceiling: at least 12,000 feet AGL
Clouds: few clouds at 1000 feet AGL
scattered clouds at 2500 feet AGL
Weather: NSW  (no significant weather)
Text: PROB30 2221/2223 23005KT 4000 BR FEW010 SCT240
Forecast period: 2100 to 2300 UTC 22 May 2019
Forecast type: PROBABLE: 30 percent likelihood of the following during this time
Winds: from the SW (230 degrees) at 6 MPH (5 knots; 2.6 m/s)
Visibility: 2.49 miles (4.01 km)
Ceiling: at least 12,000 feet AGL
Clouds: few clouds at 1000 feet AGL
scattered clouds at 24000 feet AGL
Weather: BR  (mist)
Text: TEMPO 2223/2302 21003KT 3000 MIFG FEW007 SCT240 CANCEL 1900
Forecast period: 2300 UTC 22 May 2019 to 0200 UTC 23 May 2019
Forecast type: TEMPORARY: The following changes expected for less than half the time period
Winds: from the SSW (210 degrees) at 3 MPH (3 knots; 1.5 m/s)
Visibility: 1.86 miles (2.99 km)
Ceiling: at least 12,000 feet AGL
Clouds: few clouds at 700 feet AGL
scattered clouds at 24000 feet AGL
Weather: MIFG  (shallow fog)